Eye Of The Wind — GWAK — position and weather

sailwx.info

Track history (hours):
 
Tides and Currents Weather Stations Pressure Air Temp Water Temp Dewpoint Dewpoint Depression Visibility Wind Speed Wind Dir Waves Ship Positions

Eye Of The Wind

Last reported at 2020-Jul-09 20:00 UTC. Time now 2020-Jul-09 20:25 UTC.
Position N 54°11' E 011°54'.

Length 33 m; draft 2.8 m.

Type: Sailing vessel. MMSI: 233789000.

Date/timePositionNaut miles runAvg speedWind from/ knotsBaromVisibWave heightAir tempDewpointWater temp
2020-Jul-09 20:00N 54°11' E 011°54'0 0.1
2020-Jul-09 15:59N 54°10' E 011°54'0 0.0
2020-Jul-09 13:58N 54°10' E 011°54'8 3.5
2020-Jul-09 11:44N 54°13' E 011°42'22 1.0
2020-Jul-08 13:25N 54°30' E 011°17'2 5.4
2020-Jul-08 13:00N 54°32' E 011°14'3 5.6
2020-Jul-08 12:30N 54°32' E 011°10'7 4.2
2020-Jul-08 10:53N 54°31' E 010°58'2 0.1
2020-Jul-07 11:30N 54°33' E 010°60'2 4.4
2020-Jul-07 10:59N 54°35' E 010°59'14 4.1
2020-Jul-07 07:31N 54°49' E 010°52'12 1.3
2020-Jul-06 22:30N 55°00' E 010°54'0 0.0
2020-Jul-06 18:33N 55°00' E 010°54'0 0.1
2020-Jul-06 18:27N 55°00' E 010°54'0 0.0
2020-Jul-06 17:24N 55°00' E 010°54'0 0.0
2020-Jul-06 17:00N 55°00' E 010°54'8 1.6
2020-Jul-06 11:56N 55°09' E 010°54'7 7.3
2020-Jul-06 10:57N 55°03' E 010°46'4 4.3
2020-Jul-06 09:59N 55°03' E 010°39'1 2.5
2020-Jul-06 09:29N 55°03' E 010°37'44 1.6
2020-Jul-05 05:29N 54°22' E 010°09'0 0.0
2020-Jul-05 03:59N 54°22' E 010°09'0 0.0
2020-Jul-05 02:50N 54°22' E 010°09'0 0.0
2020-Jul-05 01:50N 54°22' E 010°09'0 0.0
2020-Jul-04 22:26N 54°22' E 010°09'0 0.0
2020-Jul-04 19:59N 54°22' E 010°09'0 0.0
2020-Jul-04 19:29N 54°22' E 010°09'0 0.0
2020-Jul-04 18:29N 54°22' E 010°09'0 0.0
2020-Jul-04 12:29N 54°22' E 010°09'0 0.0
2020-Jul-04 11:29N 54°22' E 010°09'0 0.0
2020-Jul-04 02:53N 54°22' E 010°09'0 0.0
2020-Jul-04 01:53N 54°22' E 010°09'0 0.0
2020-Jul-03 21:29N 54°22' E 010°09'0 0.0
2020-Jul-03 20:59N 54°22' E 010°09'0 0.0
2020-Jul-03 17:59N 54°22' E 010°09'0 0.0
2020-Jul-03 16:29N 54°22' E 010°09'0 0.0
2020-Jul-03 15:59N 54°22' E 010°09'0 0.0
2020-Jul-03 15:20N 54°22' E 010°09'0 0.0
2020-Jul-03 14:20N 54°22' E 010°09'0 0.0
2020-Jul-03 14:01N 54°22' E 010°09'1 2.8
2020-Jul-03 13:31N 54°23' E 010°11'8 2.6
2020-Jul-03 10:31N 54°29' E 010°04'2 3.0
2020-Jul-03 10:01N 54°29' E 010°01'1 2.7
2020-Jul-03 09:31N 54°29' E 009°59'1 2.6
2020-Jul-03 09:01N 54°28' E 009°57'1 2.3
2020-Jul-03 08:31N 54°28' E 009°55'3 0.6
2020-Jul-03 03:59N 54°28' E 009°50'0 0.0
2020-Jul-03 02:56N 54°28' E 009°50'0 0.0
2020-Jul-03 02:29N 54°28' E 009°50'0 0.0
2020-Jul-02 20:26N 54°28' E 009°50'0 0.0
2020-Jul-02 19:29N 54°28' E 009°50'0 0.0
2020-Jul-02 18:26N 54°28' E 009°50'0 0.0
2020-Jul-02 15:44N 54°28' E 009°50'0 0.0
2020-Jul-02 14:29N 54°28' E 009°50'10 3.2
2020-Jul-02 11:30N 54°30' E 010°07'1 2.7
2020-Jul-02 10:59N 54°32' E 010°06'10 2.2
2020-Jul-02 06:26N 54°40' E 009°56'0 0.0
2020-Jul-02 03:59N 54°40' E 009°56'0 0.0
2020-Jul-02 03:29N 54°40' E 009°56'0 0.0
2020-Jul-02 01:23N 54°40' E 009°56'0 0.0
2020-Jul-01 23:05N 54°40' E 009°56'0 0.0
2020-Jul-01 18:29N 54°40' E 009°56'0 0.0
2020-Jul-01 15:32N 54°40' E 009°56'19 1.9
2020-Jul-01 05:28N 54°22' E 010°09'0 0.0
2020-Jul-01 03:58N 54°22' E 010°09'0 0.0
2020-Jul-01 02:28N 54°22' E 010°09'0 0.0
2020-Jun-30 23:58N 54°22' E 010°09'0 0.0
2020-Jun-30 21:22N 54°22' E 010°09'0 0.0
2020-Jun-30 18:25N 54°22' E 010°09'0 0.0
2020-Jun-30 17:55N 54°22' E 010°09'0 0.0
2020-Jun-30 15:10N 54°22' E 010°09'0 0.0
2020-Jun-30 14:28N 54°22' E 010°09'0 0.0
2020-Jun-30 13:28N 54°22' E 010°09'0 0.0
2020-Jun-30 07:22N 54°22' E 010°09'0 0.0
2020-Jun-30 06:22N 54°22' E 010°09'0 0.0
2020-Jun-30 03:25N 54°22' E 010°09'0 0.0
2020-Jun-30 02:25N 54°22' E 010°09'0 0.0
2020-Jun-30 00:28N 54°22' E 010°09'0 0.0
2020-Jun-29 22:58N 54°22' E 010°09'0 0.0
2020-Jun-29 22:28N 54°22' E 010°09'0 0.0
2020-Jun-29 21:28N 54°22' E 010°09'  
Track history (hours):
 
Tides and Currents Weather Stations Pressure Air Temp Water Temp Dewpoint Dewpoint Depression Visibility Wind Speed Wind Dir Waves Ship Positions

Eye Of The Wind

Last reported at 2020-Jul-09 20:00 UTC. Time now 2020-Jul-09 20:25 UTC.
Position N 54°11' E 011°54'.

Length 33 m; draft 2.8 m.

Type: Sailing vessel. MMSI: 233789000.

Date/timePositionNaut miles runAvg speedWind from/ knotsBaromVisibWave heightAir tempDewpointWater temp
2020-Jul-09 20:00N 54°11' E 011°54'0 0.1
2020-Jul-09 15:59N 54°10' E 011°54'0 0.0
2020-Jul-09 13:58N 54°10' E 011°54'8 3.5
2020-Jul-09 11:44N 54°13' E 011°42'22 1.0
2020-Jul-08 13:25N 54°30' E 011°17'2 5.4
2020-Jul-08 13:00N 54°32' E 011°14'3 5.6
2020-Jul-08 12:30N 54°32' E 011°10'7 4.2
2020-Jul-08 10:53N 54°31' E 010°58'2 0.1
2020-Jul-07 11:30N 54°33' E 010°60'2 4.4
2020-Jul-07 10:59N 54°35' E 010°59'14 4.1
2020-Jul-07 07:31N 54°49' E 010°52'12 1.3
2020-Jul-06 22:30N 55°00' E 010°54'0 0.0
2020-Jul-06 18:33N 55°00' E 010°54'0 0.1
2020-Jul-06 18:27N 55°00' E 010°54'0 0.0
2020-Jul-06 17:24N 55°00' E 010°54'0 0.0
2020-Jul-06 17:00N 55°00' E 010°54'8 1.6
2020-Jul-06 11:56N 55°09' E 010°54'7 7.3
2020-Jul-06 10:57N 55°03' E 010°46'4 4.3
2020-Jul-06 09:59N 55°03' E 010°39'1 2.5
2020-Jul-06 09:29N 55°03' E 010°37'44 1.6
2020-Jul-05 05:29N 54°22' E 010°09'0 0.0
2020-Jul-05 03:59N 54°22' E 010°09'0 0.0
2020-Jul-05 02:50N 54°22' E 010°09'0 0.0
2020-Jul-05 01:50N 54°22' E 010°09'0 0.0
2020-Jul-04 22:26N 54°22' E 010°09'0 0.0
2020-Jul-04 19:59N 54°22' E 010°09'0 0.0
2020-Jul-04 19:29N 54°22' E 010°09'0 0.0
2020-Jul-04 18:29N 54°22' E 010°09'0 0.0
2020-Jul-04 12:29N 54°22' E 010°09'0 0.0
2020-Jul-04 11:29N 54°22' E 010°09'0 0.0
2020-Jul-04 02:53N 54°22' E 010°09'0 0.0
2020-Jul-04 01:53N 54°22' E 010°09'0 0.0
2020-Jul-03 21:29N 54°22' E 010°09'0 0.0
2020-Jul-03 20:59N 54°22' E 010°09'0 0.0
2020-Jul-03 17:59N 54°22' E 010°09'0 0.0
2020-Jul-03 16:29N 54°22' E 010°09'0 0.0
2020-Jul-03 15:59N 54°22' E 010°09'0 0.0
2020-Jul-03 15:20N 54°22' E 010°09'0 0.0
2020-Jul-03 14:20N 54°22' E 010°09'0 0.0
2020-Jul-03 14:01N 54°22' E 010°09'1 2.8
2020-Jul-03 13:31N 54°23' E 010°11'8 2.6
2020-Jul-03 10:31N 54°29' E 010°04'2 3.0
2020-Jul-03 10:01N 54°29' E 010°01'1 2.7
2020-Jul-03 09:31N 54°29' E 009°59'1 2.6
2020-Jul-03 09:01N 54°28' E 009°57'1 2.3
2020-Jul-03 08:31N 54°28' E 009°55'3 0.6
2020-Jul-03 03:59N 54°28' E 009°50'0 0.0
2020-Jul-03 02:56N 54°28' E 009°50'0 0.0
2020-Jul-03 02:29N 54°28' E 009°50'0 0.0
2020-Jul-02 20:26N 54°28' E 009°50'0 0.0
2020-Jul-02 19:29N 54°28' E 009°50'0 0.0
2020-Jul-02 18:26N 54°28' E 009°50'0 0.0
2020-Jul-02 15:44N 54°28' E 009°50'0 0.0
2020-Jul-02 14:29N 54°28' E 009°50'10 3.2
2020-Jul-02 11:30N 54°30' E 010°07'1 2.7
2020-Jul-02 10:59N 54°32' E 010°06'10 2.2
2020-Jul-02 06:26N 54°40' E 009°56'0 0.0
2020-Jul-02 03:59N 54°40' E 009°56'0 0.0
2020-Jul-02 03:29N 54°40' E 009°56'0 0.0
2020-Jul-02 01:23N 54°40' E 009°56'0 0.0
2020-Jul-01 23:05N 54°40' E 009°56'0 0.0
2020-Jul-01 18:29N 54°40' E 009°56'0 0.0
2020-Jul-01 15:32N 54°40' E 009°56'19 1.9
2020-Jul-01 05:28N 54°22' E 010°09'0 0.0
2020-Jul-01 03:58N 54°22' E 010°09'0 0.0
2020-Jul-01 02:28N 54°22' E 010°09'0 0.0
2020-Jun-30 23:58N 54°22' E 010°09'0 0.0
2020-Jun-30 21:22N 54°22' E 010°09'0 0.0
2020-Jun-30 18:25N 54°22' E 010°09'0 0.0
2020-Jun-30 17:55N 54°22' E 010°09'0 0.0
2020-Jun-30 15:10N 54°22' E 010°09'0 0.0
2020-Jun-30 14:28N 54°22' E 010°09'0 0.0
2020-Jun-30 13:28N 54°22' E 010°09'0 0.0
2020-Jun-30 07:22N 54°22' E 010°09'0 0.0
2020-Jun-30 06:22N 54°22' E 010°09'0 0.0
2020-Jun-30 03:25N 54°22' E 010°09'0 0.0
2020-Jun-30 02:25N 54°22' E 010°09'0 0.0
2020-Jun-30 00:28N 54°22' E 010°09'0 0.0
2020-Jun-29 22:58N 54°22' E 010°09'0 0.0
2020-Jun-29 22:28N 54°22' E 010°09'0 0.0
2020-Jun-29 21:28N 54°22' E 010°09'  

Dump ship's entire track history